sensor_id;sensor_type;location;lat;lon;timestamp;P1;durP1;ratioP1;P2;durP2;ratioP2
20908;SDS011;10614;53.198;6.570;2023-03-23T07:57:20;18.05;;;2.70;;
20908;SDS011;10614;53.198;6.570;2023-03-23T07:59:29;15.35;;;2.78;;
20908;SDS011;10614;53.198;6.570;2023-03-23T08:01:35;14.52;;;3.00;;
20908;SDS011;10614;53.198;6.570;2023-03-23T08:03:39;9.23;;;2.78;;
20908;SDS011;10614;53.198;6.570;2023-03-23T08:05:43;18.10;;;2.92;;
20908;SDS011;10614;53.198;6.570;2023-03-23T08:07:45;14.73;;;2.65;;
20908;SDS011;10614;53.198;6.570;2023-03-23T08:09:48;19.30;;;2.70;;
20908;SDS011;10614;53.198;6.570;2023-03-23T08:11:49;15.57;;;3.08;;
20908;SDS011;10614;53.198;6.570;2023-03-23T08:13:53;14.82;;;2.55;;
20908;SDS011;10614;53.198;6.570;2023-03-23T08:15:56;13.75;;;2.30;;
20908;SDS011;10614;53.198;6.570;2023-03-23T08:17:58;15.40;;;2.65;;
20908;SDS011;10614;53.198;6.570;2023-03-23T08:20:01;10.25;;;2.38;;
20908;SDS011;10614;53.198;6.570;2023-03-23T08:22:12;18.00;;;2.95;;
20908;SDS011;10614;53.198;6.570;2023-03-23T08:24:13;23.83;;;3.20;;
20908;SDS011;10614;53.198;6.570;2023-03-23T08:26:15;20.13;;;2.85;;
20908;SDS011;10614;53.198;6.570;2023-03-23T08:28:17;13.13;;;2.40;;
20908;SDS011;10614;53.198;6.570;2023-03-23T08:30:21;18.63;;;3.05;;
20908;SDS011;10614;53.198;6.570;2023-03-23T08:32:24;15.00;;;2.92;;
20908;SDS011;10614;53.198;6.570;2023-03-23T08:34:26;13.65;;;2.40;;
20908;SDS011;10614;53.198;6.570;2023-03-23T08:36:29;17.65;;;2.53;;
20908;SDS011;10614;53.198;6.570;2023-03-23T08:38:31;21.10;;;2.80;;
20908;SDS011;10614;53.198;6.570;2023-03-23T08:40:33;15.10;;;2.65;;
20908;SDS011;10614;53.198;6.570;2023-03-23T08:42:35;15.63;;;3.60;;
20908;SDS011;10614;53.198;6.570;2023-03-23T08:44:37;14.85;;;3.45;;
20908;SDS011;10614;53.198;6.570;2023-03-23T08:46:40;23.65;;;3.25;;
20908;SDS011;10614;53.198;6.570;2023-03-23T08:48:42;15.55;;;2.55;;
20908;SDS011;10614;53.198;6.570;2023-03-23T08:50:45;19.10;;;2.92;;
20908;SDS011;10614;53.198;6.570;2023-03-23T08:52:47;21.88;;;2.10;;
20908;SDS011;10614;53.198;6.570;2023-03-23T08:54:49;22.23;;;2.75;;
20908;SDS011;10614;53.198;6.570;2023-03-23T08:56:51;20.92;;;3.40;;
20908;SDS011;10614;53.198;6.570;2023-03-23T08:58:53;16.73;;;3.20;;
20908;SDS011;10614;53.198;6.570;2023-03-23T09:00:55;17.35;;;3.85;;
20908;SDS011;10614;53.198;6.570;2023-03-23T09:02:58;11.45;;;2.20;;
20908;SDS011;10614;53.198;6.570;2023-03-23T09:05:00;16.70;;;2.22;;
20908;SDS011;10614;53.198;6.570;2023-03-23T09:07:03;17.88;;;2.85;;
20908;SDS011;10614;53.198;6.570;2023-03-23T09:09:04;12.98;;;2.45;;
20908;SDS011;10614;53.198;6.570;2023-03-23T09:11:09;16.20;;;2.70;;
20908;SDS011;10614;53.198;6.570;2023-03-23T09:13:12;16.70;;;3.45;;
20908;SDS011;10614;53.198;6.570;2023-03-23T09:15:15;16.15;;;2.90;;
20908;SDS011;10614;53.198;6.570;2023-03-23T09:17:18;12.02;;;2.72;;
20908;SDS011;10614;53.198;6.570;2023-03-23T09:19:21;18.38;;;3.08;;
20908;SDS011;10614;53.198;6.570;2023-03-23T09:21:23;14.75;;;2.53;;
20908;SDS011;10614;53.198;6.570;2023-03-23T09:23:26;17.05;;;3.13;;
20908;SDS011;10614;53.198;6.570;2023-03-23T09:25:28;14.40;;;3.20;;
20908;SDS011;10614;53.198;6.570;2023-03-23T09:27:30;18.08;;;2.38;;
20908;SDS011;10614;53.198;6.570;2023-03-23T09:29:32;14.80;;;3.35;;
20908;SDS011;10614;53.198;6.570;2023-03-23T09:31:34;20.23;;;2.80;;
20908;SDS011;10614;53.198;6.570;2023-03-23T09:33:36;25.02;;;3.60;;
20908;SDS011;10614;53.198;6.570;2023-03-23T09:35:40;19.63;;;3.05;;
20908;SDS011;10614;53.198;6.570;2023-03-23T09:37:43;16.77;;;3.95;;
20908;SDS011;10614;53.198;6.570;2023-03-23T09:39:45;16.08;;;3.08;;
20908;SDS011;10614;53.198;6.570;2023-03-23T09:41:59;22.75;;;3.58;;
20908;SDS011;10614;53.198;6.570;2023-03-23T09:44:10;15.02;;;2.60;;
20908;SDS011;10614;53.198;6.570;2023-03-23T09:46:30;11.50;;;2.65;;
20908;SDS011;10614;53.198;6.570;2023-03-23T09:48:46;17.35;;;2.80;;
20908;SDS011;10614;53.198;6.570;2023-03-23T09:50:55;16.30;;;3.45;;
20908;SDS011;10614;53.198;6.570;2023-03-23T09:53:03;17.27;;;3.25;;
20908;SDS011;10614;53.198;6.570;2023-03-23T09:55:11;23.40;;;3.17;;
20908;SDS011;10614;53.198;6.570;2023-03-23T09:57:16;16.38;;;2.33;;
20908;SDS011;10614;53.198;6.570;2023-03-23T09:59:24;15.52;;;3.58;;
20908;SDS011;10614;53.198;6.570;2023-03-23T10:01:33;15.25;;;2.58;;
20908;SDS011;10614;53.198;6.570;2023-03-23T10:03:38;20.48;;;2.90;;
20908;SDS011;10614;53.198;6.570;2023-03-23T10:05:42;12.45;;;2.85;;
20908;SDS011;10614;53.198;6.570;2023-03-23T10:07:48;8.68;;;2.42;;
20908;SDS011;10614;53.198;6.570;2023-03-23T10:09:51;15.52;;;2.60;;
20908;SDS011;10614;53.198;6.570;2023-03-23T10:11:57;20.00;;;3.22;;
20908;SDS011;10614;53.198;6.570;2023-03-23T10:16:40;15.02;;;2.00;;
20908;SDS011;10614;53.198;6.570;2023-03-23T10:18:46;23.58;;;2.72;;
20908;SDS011;10614;53.198;6.570;2023-03-23T10:20:55;13.55;;;2.22;;
20908;SDS011;10614;53.198;6.570;2023-03-23T10:23:02;13.88;;;3.17;;
20908;SDS011;10614;53.198;6.570;2023-03-23T10:25:15;12.93;;;2.05;;
20908;SDS011;10614;53.198;6.570;2023-03-23T10:27:22;17.88;;;2.50;;
20908;SDS011;10614;53.198;6.570;2023-03-23T10:29:29;11.45;;;2.47;;
20908;SDS011;10614;53.198;6.570;2023-03-23T10:31:35;12.13;;;2.35;;
20908;SDS011;10614;53.198;6.570;2023-03-23T10:33:41;10.13;;;2.20;;
20908;SDS011;10614;53.198;6.570;2023-03-23T10:35:45;17.33;;;2.30;;
20908;SDS011;10614;53.198;6.570;2023-03-23T10:37:53;12.98;;;2.50;;
20908;SDS011;10614;53.198;6.570;2023-03-23T10:40:00;17.60;;;2.15;;
20908;SDS011;10614;53.198;6.570;2023-03-23T10:42:09;12.68;;;2.13;;
20908;SDS011;10614;53.198;6.570;2023-03-23T10:44:12;8.55;;;2.10;;
20908;SDS011;10614;53.198;6.570;2023-03-23T10:46:21;10.73;;;2.25;;
20908;SDS011;10614;53.198;6.570;2023-03-23T10:48:29;11.27;;;2.28;;
20908;SDS011;10614;53.198;6.570;2023-03-23T10:50:34;12.10;;;2.75;;
20908;SDS011;10614;53.198;6.570;2023-03-23T10:52:39;15.43;;;2.55;;
20908;SDS011;10614;53.198;6.570;2023-03-23T10:54:46;20.88;;;3.17;;
20908;SDS011;10614;53.198;6.570;2023-03-23T10:56:54;9.65;;;2.28;;
20908;SDS011;10614;53.198;6.570;2023-03-23T10:58:56;14.52;;;2.47;;
20908;SDS011;10614;53.198;6.570;2023-03-23T11:00:59;13.02;;;1.95;;
20908;SDS011;10614;53.198;6.570;2023-03-23T11:03:03;14.02;;;2.08;;
20908;SDS011;10614;53.198;6.570;2023-03-23T11:05:09;10.43;;;1.63;;
20908;SDS011;10614;53.198;6.570;2023-03-23T11:07:20;11.48;;;2.67;;
20908;SDS011;10614;53.198;6.570;2023-03-23T11:09:36;12.13;;;2.15;;
20908;SDS011;10614;53.198;6.570;2023-03-23T11:11:39;14.10;;;1.92;;
20908;SDS011;10614;53.198;6.570;2023-03-23T11:13:45;13.43;;;2.03;;
20908;SDS011;10614;53.198;6.570;2023-03-23T11:15:48;14.93;;;2.28;;
20908;SDS011;10614;53.198;6.570;2023-03-23T11:17:57;12.63;;;2.10;;
20908;SDS011;10614;53.198;6.570;2023-03-23T11:20:09;15.32;;;2.90;;
20908;SDS011;10614;53.198;6.570;2023-03-23T11:22:15;12.30;;;2.25;;
20908;SDS011;10614;53.198;6.570;2023-03-23T11:24:21;13.35;;;1.48;;
20908;SDS011;10614;53.198;6.570;2023-03-23T11:26:27;15.15;;;2.90;;
20908;SDS011;10614;53.198;6.570;2023-03-23T11:28:32;9.23;;;2.35;;
20908;SDS011;10614;53.198;6.570;2023-03-23T11:30:38;13.98;;;1.98;;
20908;SDS011;10614;53.198;6.570;2023-03-23T11:32:42;6.35;;;1.63;;
20908;SDS011;10614;53.198;6.570;2023-03-23T11:34:45;10.27;;;1.33;;
20908;SDS011;10614;53.198;6.570;2023-03-23T11:38:54;10.10;;;1.92;;
20908;SDS011;10614;53.198;6.570;2023-03-23T11:40:57;12.82;;;1.85;;
20908;SDS011;10614;53.198;6.570;2023-03-23T11:43:06;9.35;;;1.88;;
20908;SDS011;10614;53.198;6.570;2023-03-23T11:45:15;12.90;;;2.10;;
20908;SDS011;10614;53.198;6.570;2023-03-23T11:47:23;10.88;;;1.77;;
20908;SDS011;10614;53.198;6.570;2023-03-23T11:49:32;10.23;;;1.77;;
20908;SDS011;10614;53.198;6.570;2023-03-23T11:51:42;12.23;;;1.52;;
20908;SDS011;10614;53.198;6.570;2023-03-23T11:53:49;12.90;;;1.90;;
20908;SDS011;10614;53.198;6.570;2023-03-23T11:56:09;16.08;;;2.17;;
20908;SDS011;10614;53.198;6.570;2023-03-23T11:58:17;7.90;;;1.30;;
20908;SDS011;10614;53.198;6.570;2023-03-23T12:00:21;8.00;;;1.88;;
20908;SDS011;10614;53.198;6.570;2023-03-23T12:02:34;8.90;;;1.48;;
20908;SDS011;10614;53.198;6.570;2023-03-23T12:05:13;9.00;;;1.83;;
20908;SDS011;10614;53.198;6.570;2023-03-23T12:07:35;9.50;;;1.88;;
20908;SDS011;10614;53.198;6.570;2023-03-23T12:09:52;6.22;;;1.40;;
20908;SDS011;10614;53.198;6.570;2023-03-23T12:12:04;9.10;;;1.60;;
20908;SDS011;10614;53.198;6.570;2023-03-23T12:14:16;8.45;;;1.52;;
20908;SDS011;10614;53.198;6.570;2023-03-23T12:16:27;17.90;;;1.75;;
20908;SDS011;10614;53.198;6.570;2023-03-23T12:18:37;15.88;;;1.80;;
20908;SDS011;10614;53.198;6.570;2023-03-23T12:20:52;13.38;;;1.77;;
20908;SDS011;10614;53.198;6.570;2023-03-23T12:23:04;11.75;;;1.67;;
20908;SDS011;10614;53.198;6.570;2023-03-23T12:25:19;7.93;;;1.52;;
20908;SDS011;10614;53.198;6.570;2023-03-23T12:27:39;9.27;;;1.20;;
20908;SDS011;10614;53.198;6.570;2023-03-23T12:29:57;13.00;;;1.52;;
20908;SDS011;10614;53.198;6.570;2023-03-23T12:32:22;8.45;;;1.60;;
20908;SDS011;10614;53.198;6.570;2023-03-23T12:34:37;9.88;;;1.27;;
20908;SDS011;10614;53.198;6.570;2023-03-23T12:36:47;8.10;;;1.55;;
20908;SDS011;10614;53.198;6.570;2023-03-23T12:39:04;10.65;;;1.60;;
20908;SDS011;10614;53.198;6.570;2023-03-23T12:41:20;11.65;;;1.85;;
20908;SDS011;10614;53.198;6.570;2023-03-23T12:43:28;9.10;;;1.67;;
20908;SDS011;10614;53.198;6.570;2023-03-23T12:45:55;10.38;;;1.50;;
20908;SDS011;10614;53.198;6.570;2023-03-23T12:48:05;11.18;;;1.65;;
20908;SDS011;10614;53.198;6.570;2023-03-23T12:50:14;4.55;;;1.30;;
20908;SDS011;10614;53.198;6.570;2023-03-23T12:52:21;9.65;;;1.20;;
20908;SDS011;10614;53.198;6.570;2023-03-23T12:54:29;5.55;;;1.48;;
20908;SDS011;10614;53.198;6.570;2023-03-23T12:56:35;9.80;;;1.77;;
20908;SDS011;10614;53.198;6.570;2023-03-23T12:58:44;9.65;;;1.55;;
20908;SDS011;10614;53.198;6.570;2023-03-23T13:00:52;5.80;;;1.48;;
20908;SDS011;10614;53.198;6.570;2023-03-23T13:02:58;10.70;;;1.70;;
20908;SDS011;10614;53.198;6.570;2023-03-23T13:05:05;11.77;;;1.73;;
20908;SDS011;10614;53.198;6.570;2023-03-23T13:07:15;7.88;;;1.40;;
20908;SDS011;10614;53.198;6.570;2023-03-23T13:09:22;7.57;;;1.48;;
20908;SDS011;10614;53.198;6.570;2023-03-23T13:11:30;8.98;;;1.30;;
20908;SDS011;10614;53.198;6.570;2023-03-23T13:13:47;7.40;;;1.33;;
20908;SDS011;10614;53.198;6.570;2023-03-23T13:15:55;7.22;;;1.70;;
20908;SDS011;10614;53.198;6.570;2023-03-23T13:18:08;8.93;;;1.83;;
20908;SDS011;10614;53.198;6.570;2023-03-23T13:20:26;8.27;;;1.33;;
20908;SDS011;10614;53.198;6.570;2023-03-23T13:22:37;11.27;;;1.95;;
20908;SDS011;10614;53.198;6.570;2023-03-23T13:24:46;7.45;;;1.70;;
20908;SDS011;10614;53.198;6.570;2023-03-23T13:26:52;6.00;;;1.77;;
20908;SDS011;10614;53.198;6.570;2023-03-23T13:28:56;6.78;;;1.60;;
20908;SDS011;10614;53.198;6.570;2023-03-23T13:31:02;11.38;;;1.67;;
20908;SDS011;10614;53.198;6.570;2023-03-23T13:33:13;7.30;;;1.98;;
20908;SDS011;10614;53.198;6.570;2023-03-23T13:35:17;10.50;;;1.92;;
20908;SDS011;10614;53.198;6.570;2023-03-23T13:37:21;7.63;;;1.33;;
20908;SDS011;10614;53.198;6.570;2023-03-23T13:39:27;9.27;;;1.63;;
20908;SDS011;10614;53.198;6.570;2023-03-23T13:41:30;9.20;;;1.83;;
20908;SDS011;10614;53.198;6.570;2023-03-23T13:43:33;8.60;;;1.70;;
20908;SDS011;10614;53.198;6.570;2023-03-23T13:45:42;11.50;;;2.05;;
20908;SDS011;10614;53.198;6.570;2023-03-23T13:47:46;9.75;;;1.63;;
20908;SDS011;10614;53.198;6.570;2023-03-23T13:49:51;8.65;;;2.03;;
20908;SDS011;10614;53.198;6.570;2023-03-23T13:51:59;15.25;;;1.73;;
20908;SDS011;10614;53.198;6.570;2023-03-23T13:54:24;15.43;;;1.75;;
20908;SDS011;10614;53.198;6.570;2023-03-23T13:56:35;7.60;;;1.77;;
20908;SDS011;10614;53.198;6.570;2023-03-23T13:58:44;9.73;;;1.55;;
20908;SDS011;10614;53.198;6.570;2023-03-23T14:00:50;11.60;;;2.10;;
20908;SDS011;10614;53.198;6.570;2023-03-23T14:03:04;12.77;;;2.22;;
20908;SDS011;10614;53.198;6.570;2023-03-23T14:05:26;11.23;;;2.00;;
20908;SDS011;10614;53.198;6.570;2023-03-23T14:07:49;9.15;;;1.48;;
20908;SDS011;10614;53.198;6.570;2023-03-23T14:09:55;10.90;;;1.85;;
20908;SDS011;10614;53.198;6.570;2023-03-23T14:11:59;8.40;;;1.40;;
20908;SDS011;10614;53.198;6.570;2023-03-23T14:14:13;12.57;;;2.05;;
20908;SDS011;10614;53.198;6.570;2023-03-23T14:16:19;10.82;;;1.75;;
20908;SDS011;10614;53.198;6.570;2023-03-23T14:18:23;6.20;;;1.85;;
20908;SDS011;10614;53.198;6.570;2023-03-23T14:20:29;9.98;;;2.10;;
20908;SDS011;10614;53.198;6.570;2023-03-23T14:22:35;8.13;;;1.40;;
20908;SDS011;10614;53.198;6.570;2023-03-23T14:24:39;5.53;;;1.20;;
20908;SDS011;10614;53.198;6.570;2023-03-23T14:26:42;10.18;;;1.75;;
20908;SDS011;10614;53.198;6.570;2023-03-23T14:28:49;6.13;;;1.38;;
20908;SDS011;10614;53.198;6.570;2023-03-23T14:30:52;8.02;;;1.70;;
20908;SDS011;10614;53.198;6.570;2023-03-23T14:33:02;10.20;;;2.25;;
20908;SDS011;10614;53.198;6.570;2023-03-23T14:35:06;9.65;;;1.33;;
20908;SDS011;10614;53.198;6.570;2023-03-23T14:37:14;8.95;;;1.90;;
20908;SDS011;10614;53.198;6.570;2023-03-23T14:39:19;7.70;;;2.03;;
20908;SDS011;10614;53.198;6.570;2023-03-23T14:41:27;7.10;;;1.80;;
20908;SDS011;10614;53.198;6.570;2023-03-23T14:43:30;11.13;;;1.70;;
20908;SDS011;10614;53.198;6.570;2023-03-23T14:45:36;11.00;;;1.85;;
20908;SDS011;10614;53.198;6.570;2023-03-23T14:47:38;6.45;;;1.15;;
20908;SDS011;10614;53.198;6.570;2023-03-23T14:49:44;9.90;;;1.27;;
20908;SDS011;10614;53.198;6.570;2023-03-23T14:51:47;5.05;;;1.30;;
20908;SDS011;10614;53.198;6.570;2023-03-23T14:53:52;6.45;;;1.30;;
20908;SDS011;10614;53.198;6.570;2023-03-23T14:55:54;10.90;;;1.58;;
20908;SDS011;10614;53.198;6.570;2023-03-23T14:58:04;7.22;;;1.50;;
20908;SDS011;10614;53.198;6.570;2023-03-23T15:00:11;9.35;;;1.67;;
20908;SDS011;10614;53.198;6.570;2023-03-23T15:02:17;9.65;;;1.13;;
20908;SDS011;10614;53.198;6.570;2023-03-23T15:04:24;3.78;;;1.15;;
20908;SDS011;10614;53.198;6.570;2023-03-23T15:08:31;5.30;;;1.38;;
20908;SDS011;10614;53.198;6.570;2023-03-23T15:10:35;8.07;;;1.20;;
20908;SDS011;10614;53.198;6.570;2023-03-23T15:12:37;4.13;;;0.93;;
20908;SDS011;10614;53.198;6.570;2023-03-23T15:14:42;8.15;;;1.70;;
20908;SDS011;10614;53.198;6.570;2023-03-23T15:16:46;9.13;;;1.63;;
20908;SDS011;10614;53.198;6.570;2023-03-23T15:18:51;7.68;;;1.15;;
20908;SDS011;10614;53.198;6.570;2023-03-23T15:20:56;13.27;;;1.67;;
20908;SDS011;10614;53.198;6.570;2023-03-23T15:23:04;5.80;;;1.55;;
20908;SDS011;10614;53.198;6.570;2023-03-23T15:25:08;4.47;;;1.10;;
20908;SDS011;10614;53.198;6.570;2023-03-23T15:27:12;9.47;;;1.37;;
20908;SDS011;10614;53.198;6.570;2023-03-23T15:29:16;9.33;;;1.50;;
20908;SDS011;10614;53.198;6.570;2023-03-23T15:31:22;3.15;;;0.75;;
20908;SDS011;10614;53.198;6.570;2023-03-23T15:35:33;10.70;;;1.50;;
20908;SDS011;10614;53.198;6.570;2023-03-23T15:37:38;9.43;;;1.42;;
20908;SDS011;10614;53.198;6.570;2023-03-23T15:39:43;7.43;;;0.80;;
20908;SDS011;10614;53.198;6.570;2023-03-23T15:41:47;8.45;;;1.20;;
20908;SDS011;10614;53.198;6.570;2023-03-23T15:43:51;5.95;;;1.00;;
20908;SDS011;10614;53.198;6.570;2023-03-23T15:45:55;5.30;;;1.13;;
20908;SDS011;10614;53.198;6.570;2023-03-23T15:48:09;6.47;;;1.35;;
20908;SDS011;10614;53.198;6.570;2023-03-23T15:50:13;7.45;;;1.30;;
20908;SDS011;10614;53.198;6.570;2023-03-23T15:52:18;4.05;;;1.05;;
20908;SDS011;10614;53.198;6.570;2023-03-23T15:54:20;7.50;;;1.58;;
20908;SDS011;10614;53.198;6.570;2023-03-23T15:56:22;11.13;;;1.95;;
20908;SDS011;10614;53.198;6.570;2023-03-23T15:58:25;10.55;;;1.73;;
20908;SDS011;10614;53.198;6.570;2023-03-23T16:00:28;4.18;;;0.93;;
20908;SDS011;10614;53.198;6.570;2023-03-23T16:02:30;9.48;;;1.50;;
20908;SDS011;10614;53.198;6.570;2023-03-23T16:04:33;9.98;;;1.33;;
20908;SDS011;10614;53.198;6.570;2023-03-23T16:06:35;6.20;;;1.60;;
20908;SDS011;10614;53.198;6.570;2023-03-23T16:08:39;7.95;;;1.20;;
20908;SDS011;10614;53.198;6.570;2023-03-23T16:10:41;12.57;;;1.92;;
20908;SDS011;10614;53.198;6.570;2023-03-23T16:12:42;12.10;;;1.58;;
20908;SDS011;10614;53.198;6.570;2023-03-23T16:14:44;6.55;;;1.52;;
20908;SDS011;10614;53.198;6.570;2023-03-23T16:16:47;9.43;;;1.55;;
20908;SDS011;10614;53.198;6.570;2023-03-23T16:18:51;9.25;;;1.25;;
20908;SDS011;10614;53.198;6.570;2023-03-23T16:20:53;8.30;;;1.75;;
20908;SDS011;10614;53.198;6.570;2023-03-23T16:22:55;9.95;;;1.80;;
20908;SDS011;10614;53.198;6.570;2023-03-23T16:24:58;9.57;;;1.48;;
20908;SDS011;10614;53.198;6.570;2023-03-23T16:27:01;8.38;;;1.77;;
20908;SDS011;10614;53.198;6.570;2023-03-23T16:29:04;8.80;;;1.65;;
20908;SDS011;10614;53.198;6.570;2023-03-23T16:31:11;9.10;;;1.42;;
20908;SDS011;10614;53.198;6.570;2023-03-23T16:33:13;6.40;;;1.90;;
20908;SDS011;10614;53.198;6.570;2023-03-23T16:35:15;9.95;;;1.40;;
20908;SDS011;10614;53.198;6.570;2023-03-23T16:37:17;7.25;;;1.50;;
20908;SDS011;10614;53.198;6.570;2023-03-23T16:39:20;6.72;;;1.92;;
20908;SDS011;10614;53.198;6.570;2023-03-23T16:41:24;8.98;;;1.75;;
20908;SDS011;10614;53.198;6.570;2023-03-23T16:43:25;6.13;;;1.30;;
20908;SDS011;10614;53.198;6.570;2023-03-23T16:45:27;7.70;;;1.70;;
20908;SDS011;10614;53.198;6.570;2023-03-23T16:47:29;7.10;;;1.95;;
20908;SDS011;10614;53.198;6.570;2023-03-23T16:49:31;11.40;;;1.98;;
20908;SDS011;10614;53.198;6.570;2023-03-23T16:51:32;10.13;;;1.85;;
20908;SDS011;10614;53.198;6.570;2023-03-23T16:53:34;6.43;;;1.88;;
20908;SDS011;10614;53.198;6.570;2023-03-23T16:55:36;8.50;;;1.65;;
20908;SDS011;10614;53.198;6.570;2023-03-23T16:57:40;5.72;;;1.15;;
20908;SDS011;10614;53.198;6.570;2023-03-23T16:59:42;8.18;;;1.88;;
20908;SDS011;10614;53.198;6.570;2023-03-23T17:01:44;6.05;;;1.83;;
20908;SDS011;10614;53.198;6.570;2023-03-23T17:03:46;13.10;;;2.00;;
20908;SDS011;10614;53.198;6.570;2023-03-23T17:05:48;13.43;;;2.38;;
20908;SDS011;10614;53.198;6.570;2023-03-23T17:07:51;8.27;;;2.00;;
20908;SDS011;10614;53.198;6.570;2023-03-23T17:09:54;10.13;;;2.05;;
20908;SDS011;10614;53.198;6.570;2023-03-23T17:11:55;10.15;;;2.22;;
20908;SDS011;10614;53.198;6.570;2023-03-23T17:13:59;9.60;;;1.88;;
20908;SDS011;10614;53.198;6.570;2023-03-23T17:16:00;5.85;;;1.80;;
20908;SDS011;10614;53.198;6.570;2023-03-23T17:18:02;9.35;;;2.05;;
20908;SDS011;10614;53.198;6.570;2023-03-23T17:20:05;6.57;;;1.70;;
20908;SDS011;10614;53.198;6.570;2023-03-23T17:22:08;5.40;;;1.42;;
20908;SDS011;10614;53.198;6.570;2023-03-23T17:24:10;8.70;;;1.60;;
20908;SDS011;10614;53.198;6.570;2023-03-23T17:26:12;8.57;;;1.73;;
20908;SDS011;10614;53.198;6.570;2023-03-23T17:28:14;10.65;;;1.92;;
20908;SDS011;10614;53.198;6.570;2023-03-23T17:30:17;5.55;;;1.42;;
20908;SDS011;10614;53.198;6.570;2023-03-23T17:32:19;8.63;;;1.85;;
20908;SDS011;10614;53.198;6.570;2023-03-23T17:34:23;6.35;;;1.70;;
20908;SDS011;10614;53.198;6.570;2023-03-23T17:36:25;10.27;;;2.20;;
20908;SDS011;10614;53.198;6.570;2023-03-23T17:38:27;9.88;;;1.70;;
20908;SDS011;10614;53.198;6.570;2023-03-23T17:40:28;9.18;;;2.00;;
20908;SDS011;10614;53.198;6.570;2023-03-23T17:42:30;6.63;;;1.33;;
20908;SDS011;10614;53.198;6.570;2023-03-23T17:44:32;6.97;;;1.52;;
20908;SDS011;10614;53.198;6.570;2023-03-23T17:46:37;11.30;;;1.73;;
20908;SDS011;10614;53.198;6.570;2023-03-23T17:48:38;7.13;;;1.50;;
20908;SDS011;10614;53.198;6.570;2023-03-23T17:50:40;9.60;;;1.55;;
20908;SDS011;10614;53.198;6.570;2023-03-23T17:52:42;6.85;;;1.25;;
20908;SDS011;10614;53.198;6.570;2023-03-23T17:54:44;9.38;;;1.98;;
20908;SDS011;10614;53.198;6.570;2023-03-23T17:56:46;10.80;;;3.28;;
20908;SDS011;10614;53.198;6.570;2023-03-23T17:58:49;9.38;;;1.98;;
20908;SDS011;10614;53.198;6.570;2023-03-23T18:00:51;7.50;;;1.98;;
20908;SDS011;10614;53.198;6.570;2023-03-23T18:02:55;5.35;;;1.65;;
20908;SDS011;10614;53.198;6.570;2023-03-23T18:04:57;5.10;;;1.30;;
20908;SDS011;10614;53.198;6.570;2023-03-23T18:06:59;8.43;;;1.73;;
20908;SDS011;10614;53.198;6.570;2023-03-23T18:09:01;10.90;;;2.13;;
20908;SDS011;10614;53.198;6.570;2023-03-23T18:11:05;5.38;;;1.10;;
20908;SDS011;10614;53.198;6.570;2023-03-23T18:13:09;3.85;;;0.90;;
20908;SDS011;10614;53.198;6.570;2023-03-23T18:15:11;9.93;;;1.73;;
20908;SDS011;10614;53.198;6.570;2023-03-23T18:17:13;8.38;;;1.52;;
20908;SDS011;10614;53.198;6.570;2023-03-23T18:19:16;7.30;;;1.60;;
20908;SDS011;10614;53.198;6.570;2023-03-23T18:21:19;5.18;;;1.88;;
20908;SDS011;10614;53.198;6.570;2023-03-23T18:23:22;5.95;;;1.33;;
20908;SDS011;10614;53.198;6.570;2023-03-23T18:25:24;5.82;;;1.02;;
20908;SDS011;10614;53.198;6.570;2023-03-23T18:27:26;3.97;;;1.35;;
20908;SDS011;10614;53.198;6.570;2023-03-23T18:29:27;6.50;;;1.67;;
20908;SDS011;10614;53.198;6.570;2023-03-23T18:31:29;6.10;;;1.35;;
20908;SDS011;10614;53.198;6.570;2023-03-23T18:33:32;7.80;;;1.35;;
20908;SDS011;10614;53.198;6.570;2023-03-23T18:35:37;8.70;;;1.40;;
20908;SDS011;10614;53.198;6.570;2023-03-23T18:37:38;3.85;;;1.38;;
20908;SDS011;10614;53.198;6.570;2023-03-23T18:39:40;6.43;;;1.60;;
20908;SDS011;10614;53.198;6.570;2023-03-23T18:41:42;3.80;;;0.98;;
20908;SDS011;10614;53.198;6.570;2023-03-23T18:43:45;6.80;;;1.52;;
20908;SDS011;10614;53.198;6.570;2023-03-23T18:45:48;3.35;;;1.00;;
20908;SDS011;10614;53.198;6.570;2023-03-23T18:47:51;5.68;;;1.00;;
20908;SDS011;10614;53.198;6.570;2023-03-23T18:49:52;5.53;;;0.98;;
20908;SDS011;10614;53.198;6.570;2023-03-23T18:51:56;4.78;;;1.13;;
20908;SDS011;10614;53.198;6.570;2023-03-23T18:53:59;3.83;;;1.30;;
20908;SDS011;10614;53.198;6.570;2023-03-23T18:56:05;5.68;;;1.60;;
20908;SDS011;10614;53.198;6.570;2023-03-23T18:58:09;6.78;;;1.70;;
20908;SDS011;10614;53.198;6.570;2023-03-23T19:00:11;8.60;;;2.22;;
20908;SDS011;10614;53.198;6.570;2023-03-23T19:02:13;8.45;;;1.90;;
20908;SDS011;10614;53.198;6.570;2023-03-23T19:04:17;5.63;;;1.67;;
20908;SDS011;10614;53.198;6.570;2023-03-23T19:06:22;4.88;;;1.65;;
20908;SDS011;10614;53.198;6.570;2023-03-23T19:08:27;5.78;;;1.63;;
20908;SDS011;10614;53.198;6.570;2023-03-23T19:10:29;5.85;;;1.90;;
20908;SDS011;10614;53.198;6.570;2023-03-23T19:12:31;6.00;;;1.20;;
20908;SDS011;10614;53.198;6.570;2023-03-23T19:14:33;5.07;;;1.58;;
20908;SDS011;10614;53.198;6.570;2023-03-23T19:16:35;7.97;;;1.40;;
20908;SDS011;10614;53.198;6.570;2023-03-23T19:18:37;3.90;;;1.40;;
20908;SDS011;10614;53.198;6.570;2023-03-23T19:20:40;4.25;;;1.65;;
20908;SDS011;10614;53.198;6.570;2023-03-23T19:22:42;5.15;;;1.38;;
20908;SDS011;10614;53.198;6.570;2023-03-23T19:24:45;2.85;;;1.27;;
20908;SDS011;10614;53.198;6.570;2023-03-23T19:26:49;4.25;;;1.30;;
20908;SDS011;10614;53.198;6.570;2023-03-23T19:28:51;3.08;;;1.08;;
20908;SDS011;10614;53.198;6.570;2023-03-23T19:30:53;4.75;;;1.20;;
20908;SDS011;10614;53.198;6.570;2023-03-23T19:32:57;2.50;;;1.33;;
20908;SDS011;10614;53.198;6.570;2023-03-23T19:34:58;4.70;;;1.63;;
20908;SDS011;10614;53.198;6.570;2023-03-23T19:37:00;3.55;;;1.10;;
20908;SDS011;10614;53.198;6.570;2023-03-23T19:39:03;4.32;;;1.35;;
20908;SDS011;10614;53.198;6.570;2023-03-23T19:41:08;4.68;;;1.45;;
20908;SDS011;10614;53.198;6.570;2023-03-23T19:43:10;7.43;;;1.48;;
20908;SDS011;10614;53.198;6.570;2023-03-23T19:45:12;4.88;;;1.98;;
20908;SDS011;10614;53.198;6.570;2023-03-23T19:47:14;6.78;;;1.85;;
20908;SDS011;10614;53.198;6.570;2023-03-23T19:49:16;4.32;;;1.50;;
20908;SDS011;10614;53.198;6.570;2023-03-23T19:51:18;8.20;;;1.95;;
20908;SDS011;10614;53.198;6.570;2023-03-23T19:53:21;3.42;;;1.52;;
20908;SDS011;10614;53.198;6.570;2023-03-23T19:55:24;7.30;;;1.60;;
20908;SDS011;10614;53.198;6.570;2023-03-23T19:57:27;5.25;;;1.45;;
20908;SDS011;10614;53.198;6.570;2023-03-23T19:59:29;4.38;;;1.45;;
20908;SDS011;10614;53.198;6.570;2023-03-23T20:01:31;4.30;;;1.38;;
20908;SDS011;10614;53.198;6.570;2023-03-23T20:03:32;3.92;;;1.40;;
20908;SDS011;10614;53.198;6.570;2023-03-23T20:05:35;5.13;;;1.55;;
20908;SDS011;10614;53.198;6.570;2023-03-23T20:07:37;6.18;;;1.33;;
20908;SDS011;10614;53.198;6.570;2023-03-23T20:09:40;3.28;;;1.27;;
20908;SDS011;10614;53.198;6.570;2023-03-23T20:11:42;7.30;;;2.03;;
20908;SDS011;10614;53.198;6.570;2023-03-23T20:13:45;2.95;;;1.40;;
20908;SDS011;10614;53.198;6.570;2023-03-23T20:15:50;8.05;;;1.60;;
20908;SDS011;10614;53.198;6.570;2023-03-23T20:17:52;4.93;;;1.63;;
20908;SDS011;10614;53.198;6.570;2023-03-23T20:19:53;2.92;;;1.40;;
20908;SDS011;10614;53.198;6.570;2023-03-23T20:21:55;2.38;;;1.20;;
20908;SDS011;10614;53.198;6.570;2023-03-23T20:24:01;5.65;;;1.50;;
20908;SDS011;10614;53.198;6.570;2023-03-23T20:26:04;4.65;;;2.05;;
20908;SDS011;10614;53.198;6.570;2023-03-23T20:28:08;5.18;;;1.88;;
20908;SDS011;10614;53.198;6.570;2023-03-23T20:30:11;5.22;;;1.50;;
20908;SDS011;10614;53.198;6.570;2023-03-23T20:32:13;4.50;;;1.85;;
20908;SDS011;10614;53.198;6.570;2023-03-23T20:34:15;5.15;;;1.90;;
20908;SDS011;10614;53.198;6.570;2023-03-23T20:36:30;6.75;;;2.03;;